Weather reports worldwide

Advertisment
Great Dun Fell, United Kingdom (3227): temperature & dewpoint: 22.02.2017 14:00:00 - 28.02.2017 14:00:00 (GMT)Great Dun Fell, United Kingdom (3227): wind speed & gusts: 22.02.2017 14:00:00 - 28.02.2017 14:00:00 (GMT)Great Dun Fell, United Kingdom (3227): wind direction: 22.02.2017 14:00:00 - 28.02.2017 14:00:00 (GMT)
Date & Time tt [°C] td [°C] ff [km/h] ff [kn] fx [km/h] fx [kn] dd
28.02.2017 14:00:00 -1,7 -1,7 26 14 - - SW
28.02.2017 13:00:00 -1,6 -1,6 39 21 50 27 WSW
28.02.2017 12:00:00 -2,0 -2,0 46 25 57 31 WSW
28.02.2017 11:00:00 -2,0 -2,0 42 23 52 28 WSW
28.02.2017 10:00:00 -3,1 -3,4 39 21 - - WSW
28.02.2017 09:00:00 -3,4 -3,7 34 18 - - WSW
28.02.2017 08:00:00 -3,5 -3,8 35 19 - - WSW
28.02.2017 07:00:00 -3,6 -3,9 37 20 - - W
28.02.2017 06:00:00 -3,8 -4,2 37 20 - - W
28.02.2017 05:00:00 -3,9 -4,3 34 18 - - W
28.02.2017 04:00:00 -3,8 -4,2 31 17 - - W
28.02.2017 03:00:00 -3,7 -4,1 34 18 - - W
28.02.2017 02:00:00 -3,8 -4,2 29 16 - - WNW
28.02.2017 01:00:00 -3,9 -4,3 31 17 48 26 WNW
28.02.2017 00:00:00 -3,7 -4,0 37 20 50 27 W
27.02.2017 23:00:00 -3,4 -3,7 37 20 - - WNW
27.02.2017 22:00:00 -3,1 -3,3 31 17 - - WNW
27.02.2017 21:00:00 -2,8 -2,8 34 18 - - W
27.02.2017 20:00:00 -2,8 -2,8 34 18 - - W
27.02.2017 19:00:00 -2,7 -2,7 35 19 - - WNW
27.02.2017 18:00:00 -2,1 -2,1 31 17 - - WNW
27.02.2017 17:00:00 -1,4 -1,4 28 15 - - W
27.02.2017 16:00:00 -1,0 -1,0 26 14 - - WSW
27.02.2017 15:00:00 -0,9 -0,9 24 13 - - SW
27.02.2017 14:00:00 -0,8 -0,8 22 12 - - SW
27.02.2017 13:00:00 -0,6 -0,6 26 14 - - S
27.02.2017 12:00:00 -0,8 -0,8 22 12 - - SSW
27.02.2017 11:00:00 -1,2 -1,2 28 15 - - SSW
27.02.2017 10:00:00 -1,2 -1,2 35 19 - - SW
27.02.2017 09:00:00 -1,3 -1,3 34 18 54 29 SW
27.02.2017 08:00:00 -0,9 -0,9 44 24 57 31 SW
27.02.2017 07:00:00 -0,9 -0,9 42 23 57 31 SW
27.02.2017 06:00:00 -0,9 -0,9 48 26 65 35 SSW
27.02.2017 05:00:00 -0,6 -0,6 54 29 72 39 SSW
27.02.2017 04:00:00 -0,5 -0,5 61 33 81 44 SSW
27.02.2017 03:00:00 -0,3 -0,3 74 40 93 50 SW
27.02.2017 02:00:00 -0,5 -0,5 55 30 74 40 SW
27.02.2017 01:00:00 -0,8 -0,9 46 25 63 34 SW
27.02.2017 00:00:00 -1,1 -1,1 52 28 57 31 SW
26.02.2017 23:00:00 -1,5 -1,5 50 27 70 38 WSW
26.02.2017 22:00:00 -0,1 - 61 33 72 39 WSW
26.02.2017 21:00:00 -0,6 - 50 27 65 35 WSW
26.02.2017 20:00:00 0,1 - 55 30 78 42 W
26.02.2017 19:00:00 2,7 - 52 28 72 39 WSW
26.02.2017 18:00:00 3,3 - 67 36 124 67 WSW
26.02.2017 17:00:00 3,8 - 107 58 139 75 SW
26.02.2017 16:00:00 3,7 3,7 106 57 130 70 SW
26.02.2017 15:00:00 4,0 4,0 100 54 119 64 SW
26.02.2017 14:00:00 3,1 3,1 85 46 109 59 SW
26.02.2017 13:00:00 2,9 2,9 80 43 104 56 SW
26.02.2017 12:00:00 2,5 2,5 65 35 102 55 SW
26.02.2017 11:00:00 2,2 1,4 78 42 96 52 SW
26.02.2017 10:00:00 1,9 1,0 68 37 87 47 SW
26.02.2017 09:00:00 1,7 0,8 70 38 87 47 SW
26.02.2017 08:00:00 0,7 -0,1 67 36 89 48 SW
26.02.2017 07:00:00 0,8 0,0 74 40 85 46 SW
26.02.2017 06:00:00 0,5 -0,2 65 35 78 42 WSW
26.02.2017 05:00:00 0,4 -0,4 72 39 83 45 WSW
26.02.2017 04:00:00 1,0 0,2 63 34 70 38 WSW
26.02.2017 03:00:00 0,9 0,1 46 25 57 31 WSW
26.02.2017 02:00:00 1,0 0,2 46 25 52 28 SW
26.02.2017 01:00:00 0,5 -0,3 42 23 50 27 WSW
26.02.2017 00:00:00 0,7 0,0 35 19 - - W
25.02.2017 23:00:00 1,0 0,2 28 15 - - W
25.02.2017 22:00:00 1,3 0,5 34 18 - - WNW
25.02.2017 21:00:00 2,6 1,7 35 19 50 27 WNW
25.02.2017 20:00:00 3,2 2,3 42 23 72 39 W
25.02.2017 19:00:00 4,8 3,9 61 33 76 41 W
25.02.2017 18:00:00 4,8 3,9 78 42 104 56 WSW
25.02.2017 17:00:00 4,6 3,7 91 49 102 55 SW
25.02.2017 16:00:00 4,5 3,6 67 36 76 41 SW
25.02.2017 15:00:00 4,3 3,5 65 35 80 43 SW
25.02.2017 14:00:00 4,2 3,4 67 36 91 49 SW
25.02.2017 13:00:00 4,0 3,1 76 41 96 52 SW
25.02.2017 12:00:00 3,6 2,8 76 41 91 49 SW
25.02.2017 11:00:00 3,0 2,3 74 40 96 52 SW
25.02.2017 10:00:00 2,8 2,1 76 41 98 53 SW
25.02.2017 09:00:00 2,6 1,9 80 43 107 58 SW
25.02.2017 08:00:00 2,5 1,9 78 42 111 60 SW
25.02.2017 07:00:00 2,3 1,8 94 51 115 62 SW
25.02.2017 06:00:00 2,1 1,6 94 51 109 59 SW
25.02.2017 05:00:00 1,9 1,4 81 44 106 57 SW
25.02.2017 04:00:00 1,5 1,0 89 48 106 57 SW
25.02.2017 03:00:00 1,0 0,6 83 45 102 55 SW
25.02.2017 02:00:00 0,9 0,5 80 43 100 54 SW
25.02.2017 01:00:00 0,9 0,5 76 41 107 58 SW
25.02.2017 00:00:00 0,0 -0,3 72 39 85 46 SW
24.02.2017 23:00:00 -0,3 -0,5 67 36 78 42 SW
24.02.2017 22:00:00 -0,4 -0,5 63 34 83 45 SW
24.02.2017 21:00:00 -0,3 -0,4 74 40 87 47 SW
24.02.2017 20:00:00 -1,4 -1,4 65 35 74 40 SW
24.02.2017 19:00:00 -1,7 -1,8 52 28 59 32 SW
24.02.2017 18:00:00 -1,5 -1,6 42 23 59 32 WSW
24.02.2017 17:00:00 -1,1 -1,4 44 24 52 28 WSW
24.02.2017 16:00:00 -1,0 -1,3 42 23 50 27 WSW
24.02.2017 15:00:00 -0,8 -1,2 41 22 48 26 W
24.02.2017 14:00:00 -0,7 -1,1 37 20 50 27 W
24.02.2017 13:00:00 -0,7 -1,0 39 21 55 30 W
24.02.2017 12:00:00 -1,4 -1,6 37 20 46 25 W
24.02.2017 11:00:00 -1,8 -1,9 31 17 - - W
24.02.2017 10:00:00 -2,3 -2,4 28 15 - - W
24.02.2017 09:00:00 -2,6 -2,7 26 14 - - WNW
24.02.2017 08:00:00 -2,6 -2,7 34 18 54 29 NW
24.02.2017 07:00:00 -3,2 -3,4 42 23 55 30 NNW
24.02.2017 06:00:00 -2,7 -2,8 44 24 63 34 NW
24.02.2017 05:00:00 -2,5 -2,7 39 21 59 32 NW
24.02.2017 04:00:00 -2,6 -2,7 42 23 57 31 WNW
24.02.2017 03:00:00 -2,3 -2,4 42 23 61 33 WNW
24.02.2017 02:00:00 -1,8 -1,9 37 20 63 34 WNW
24.02.2017 01:00:00 -2,0 -2,1 48 26 72 39 WNW
24.02.2017 00:00:00 -1,7 -1,8 54 29 68 37 WNW
23.02.2017 23:00:00 -2,2 -2,2 42 23 52 28 W
23.02.2017 22:00:00 -2,3 -2,4 37 20 48 26 W
23.02.2017 21:00:00 -2,1 -2,2 34 18 - - WNW
23.02.2017 20:00:00 -2,1 -2,2 31 17 - - NW
23.02.2017 19:00:00 -2,1 -2,1 34 18 50 27 NW
23.02.2017 18:00:00 -2,3 -2,5 42 23 63 34 N
23.02.2017 17:00:00 -2,3 -2,6 54 29 70 38 N
23.02.2017 16:00:00 -2,1 -2,6 57 31 80 43 NNW
23.02.2017 15:00:00 -2,2 -2,8 68 37 98 53 NNW
23.02.2017 14:00:00 -2,0 -2,7 81 44 102 55 N
23.02.2017 13:00:00 -1,4 -2,2 50 27 78 42 N
23.02.2017 12:00:00 1,2 0,3 44 24 61 33 NW
23.02.2017 11:00:00 0,6 -0,3 42 23 52 28 NNW
23.02.2017 10:00:00 -0,1 -0,9 26 14 59 32 SW
23.02.2017 09:00:00 0,0 -0,8 52 28 98 53 SSW
23.02.2017 08:00:00 1,2 0,4 65 35 89 48 SW
23.02.2017 07:00:00 2,1 1,1 80 43 104 56 SW
23.02.2017 06:00:00 3,7 2,6 78 42 96 52 SW
23.02.2017 05:00:00 3,0 2,0 67 36 81 44 SSW
23.02.2017 04:00:00 2,2 1,2 52 28 65 35 S
23.02.2017 03:00:00 -0,1 -0,9 42 23 54 29 SSE
23.02.2017 02:00:00 -0,7 -1,5 34 18 - - SSE
23.02.2017 01:00:00 -0,8 -1,7 22 12 - - SE
23.02.2017 00:00:00 -0,4 -1,3 15 8 - - S
22.02.2017 23:00:00 -0,3 -1,2 22 12 - - WSW
22.02.2017 22:00:00 -0,2 -1,0 31 17 - - W
22.02.2017 21:00:00 -0,2 -1,1 41 22 59 32 W
22.02.2017 20:00:00 -0,3 -1,1 52 28 72 39 W
22.02.2017 19:00:00 -0,1 -0,9 65 35 83 45 W
22.02.2017 18:00:00 -0,3 -1,2 68 37 78 42 W
22.02.2017 17:00:00 0,1 -1,0 70 38 83 45 W
22.02.2017 16:00:00 0,1 -1,1 68 37 89 48 W
22.02.2017 15:00:00 0,1 -1,1 72 39 89 48 W
22.02.2017 14:00:00 0,3 -1,0 68 37 91 49 W

tt = temperature
td = dewpoint
ff = wind speed
fx = gusts
dd = wind direction

Next stations